Time;durP1;ratioP1;P1;durP2;ratioP2;P2;SDS_P1;SDS_P2;PMS_P1;PMS_P2;Temp;Humidity;BMP_temperature;BMP_pressure;BME280_temperature;BME280_humidity;BME280_pressure;Samples;Min_cycle;Max_cycle;Signal;HPM_P1;HPM_P2
2023/07/15 00:00:04;;;;;;;1.40;1.30;;;;;;;;;;5052824;28;20282;-56
2023/07/15 00:02:30;;;;;;;1.35;1.25;;;;;;;;;;5052828;28;20305;-56
2023/07/15 00:04:56;;;;;;;1.63;0.95;;;;;;;;;;5053804;28;20278;-55
2023/07/15 00:07:22;;;;;;;1.17;0.98;;;;;;;;;;5052777;28;20534;-55
2023/07/15 00:09:48;;;;;;;1.00;0.90;;;;;;;;;;5053031;28;20261;-55
2023/07/15 00:12:15;;;;;;;1.10;1.00;;;;;;;;;;5053798;28;20259;-55
2023/07/15 00:14:41;;;;;;;1.92;1.30;;;;;;;;;;5049698;28;20190;-55
2023/07/15 00:17:08;;;;;;;1.30;1.17;;;;;;;;;;5049987;28;20175;-55
2023/07/15 00:19:34;;;;;;;1.25;1.15;;;;;;;;;;5053758;28;20181;-55
2023/07/15 00:22:00;;;;;;;1.27;1.13;;;;;;;;;;5049596;28;20183;-55
2023/07/15 00:24:26;;;;;;;1.17;1.00;;;;;;;;;;5046395;28;20260;-55
2023/07/15 00:26:52;;;;;;;1.17;1.08;;;;;;;;;;5046156;28;20212;-55
2023/07/15 00:29:19;;;;;;;1.08;0.95;;;;;;;;;;5052926;28;20195;-56
2023/07/15 00:31:45;;;;;;;1.35;1.25;;;;;;;;;;5051963;28;20175;-56
2023/07/15 00:34:11;;;;;;;2.80;0.93;;;;;;;;;;5053895;28;20179;-56
2023/07/15 00:36:37;;;;;;;1.40;1.30;;;;;;;;;;5052964;28;20225;-56
2023/07/15 00:39:04;;;;;;;1.25;1.15;;;;;;;;;;5048948;28;20211;-55
2023/07/15 00:41:32;;;;;;;1.27;1.17;;;;;;;;;;5052175;28;20176;-55
2023/07/15 00:43:58;;;;;;;1.23;1.13;;;;;;;;;;5052961;28;20191;-55
2023/07/15 00:46:37;;;;;;;1.05;1.02;;;;;;;;;;5047657;28;20259;-55
2023/07/15 00:49:18;;;;;;;1.05;1.00;;;;;;;;;;5051144;28;20183;-55
2023/07/15 00:52:01;;;;;;;1.20;1.13;;;;;;;;;;5057868;28;20174;-55
2023/07/15 00:54:27;;;;;;;1.33;1.20;;;;;;;;;;5057054;28;20172;-55
2023/07/15 00:56:55;;;;;;;1.30;1.20;;;;;;;;;;5049987;28;20195;-55
2023/07/15 00:59:21;;;;;;;1.08;1.02;;;;;;;;;;5049557;28;20183;-55
2023/07/15 01:01:49;;;;;;;0.95;0.95;;;;;;;;;;5057010;28;20557;-55
2023/07/15 01:04:15;;;;;;;1.20;1.10;;;;;;;;;;5056969;28;20202;-55
2023/07/15 01:06:45;;;;;;;1.13;1.02;;;;;;;;;;5057092;28;20546;-56
2023/07/15 01:09:11;;;;;;;1.30;1.20;;;;;;;;;;5054277;28;20262;-56
2023/07/15 01:11:39;;;;;;;1.25;1.15;;;;;;;;;;5056653;28;20191;-56
2023/07/15 01:14:05;;;;;;;1.17;1.08;;;;;;;;;;5055471;28;20215;-56
2023/07/15 01:16:32;;;;;;;1.80;1.30;;;;;;;;;;5054835;28;20249;-55
2023/07/15 01:18:58;;;;;;;1.58;1.20;;;;;;;;;;5052539;28;20179;-55
2023/07/15 01:21:26;;;;;;;0.90;0.90;;;;;;;;;;5068180;28;20182;-55
2023/07/15 01:23:52;;;;;;;1.10;1.00;;;;;;;;;;5069968;28;20201;-56
2023/07/15 01:26:18;;;;;;;1.40;1.30;;;;;;;;;;5056482;28;20269;-56
2023/07/15 01:28:44;;;;;;;1.20;1.10;;;;;;;;;;5055373;28;20175;-56
2023/07/15 01:31:09;;;;;;;0.98;0.98;;;;;;;;;;5050536;28;20519;-55
2023/07/15 01:33:35;;;;;;;1.77;1.33;;;;;;;;;;5056500;28;20171;-55
2023/07/15 01:36:04;;;;;;;1.13;1.02;;;;;;;;;;5056773;28;20206;-55
2023/07/15 01:38:30;;;;;;;1.25;1.13;;;;;;;;;;5056108;28;20178;-55
2023/07/15 01:40:56;;;;;;;1.10;0.98;;;;;;;;;;5046464;28;20251;-55
2023/07/15 01:43:22;;;;;;;1.17;1.10;;;;;;;;;;5049169;28;20183;-56
2023/07/15 01:45:48;;;;;;;1.30;1.20;;;;;;;;;;5046809;28;20656;-55
2023/07/15 01:48:14;;;;;;;1.55;1.20;;;;;;;;;;5048970;28;20272;-55
2023/07/15 01:50:40;;;;;;;1.48;1.13;;;;;;;;;;5052850;28;20179;-55
2023/07/15 01:53:06;;;;;;;1.40;1.20;;;;;;;;;;5071412;28;20715;-55
2023/07/15 01:55:32;;;;;;;1.38;1.20;;;;;;;;;;5076296;28;20189;-55
2023/07/15 01:57:58;;;;;;;1.30;1.10;;;;;;;;;;5076239;28;20182;-56
2023/07/15 02:00:24;;;;;;;0.98;0.88;;;;;;;;;;5060570;28;20194;-56
2023/07/15 02:02:50;;;;;;;1.00;1.00;;;;;;;;;;5052756;28;20214;-56
2023/07/15 02:05:16;;;;;;;1.10;1.05;;;;;;;;;;5053479;28;20186;-56
2023/07/15 02:07:42;;;;;;;1.10;1.10;;;;;;;;;;5055561;28;20198;-56
2023/07/15 02:10:08;;;;;;;1.30;1.20;;;;;;;;;;5052461;28;20171;-56
2023/07/15 02:12:35;;;;;;;1.13;1.00;;;;;;;;;;5055851;28;20202;-56
2023/07/15 02:15:01;;;;;;;1.60;1.30;;;;;;;;;;5055507;28;20170;-56
2023/07/15 02:17:27;;;;;;;1.13;1.02;;;;;;;;;;5051953;28;20213;-56
2023/07/15 02:19:57;;;;;;;0.95;0.95;;;;;;;;;;5052852;28;20625;-56
2023/07/15 02:22:23;;;;;;;1.17;1.08;;;;;;;;;;5063804;28;20186;-56
2023/07/15 02:24:49;;;;;;;1.40;1.30;;;;;;;;;;5068024;28;20272;-56
2023/07/15 02:27:16;;;;;;;1.40;1.30;;;;;;;;;;5055604;28;20282;-56
2023/07/15 02:29:42;;;;;;;1.08;1.00;;;;;;;;;;5053351;28;20179;-56
2023/07/15 02:32:08;;;;;;;1.15;1.05;;;;;;;;;;5054948;28;20641;-55
2023/07/15 02:34:34;;;;;;;1.40;1.05;;;;;;;;;;5054610;28;20535;-55
2023/07/15 02:37:01;;;;;;;1.05;0.95;;;;;;;;;;5052321;28;20229;-55
2023/07/15 02:39:27;;;;;;;1.08;1.00;;;;;;;;;;5051857;28;20585;-55
2023/07/15 02:41:53;;;;;;;1.08;1.00;;;;;;;;;;5055296;28;20183;-55
2023/07/15 02:44:19;;;;;;;1.20;1.10;;;;;;;;;;5043497;28;20198;-55
2023/07/15 02:46:45;;;;;;;1.13;1.02;;;;;;;;;;5035940;28;20210;-55
2023/07/15 02:49:11;;;;;;;1.20;1.10;;;;;;;;;;5038776;28;20304;-55
2023/07/15 02:51:37;;;;;;;1.20;1.10;;;;;;;;;;5042806;28;20262;-55
2023/07/15 02:54:03;;;;;;;1.40;1.30;;;;;;;;;;5035922;28;20194;-56
2023/07/15 02:56:29;;;;;;;1.13;1.02;;;;;;;;;;5038004;28;20198;-56
2023/07/15 02:58:55;;;;;;;1.10;1.10;;;;;;;;;;5040189;28;20270;-55
2023/07/15 03:01:21;;;;;;;1.13;1.08;;;;;;;;;;5044575;28;20198;-56
2023/07/15 03:03:47;;;;;;;1.05;1.00;;;;;;;;;;5042428;28;20188;-56
2023/07/15 03:06:13;;;;;;;1.35;1.13;;;;;;;;;;5036480;28;20187;-55
2023/07/15 03:08:39;;;;;;;1.00;0.93;;;;;;;;;;5043425;28;20186;-56
2023/07/15 03:11:08;;;;;;;2.05;1.10;;;;;;;;;;5062006;28;20468;-56
2023/07/15 03:13:34;;;;;;;1.25;1.15;;;;;;;;;;5054274;28;20179;-56
2023/07/15 03:16:01;;;;;;;1.05;1.00;;;;;;;;;;5062018;28;20178;-56
2023/07/15 03:18:28;;;;;;;1.40;1.30;;;;;;;;;;5053373;28;20182;-56
2023/07/15 03:20:54;;;;;;;0.98;0.98;;;;;;;;;;5053336;28;20582;-56
2023/07/15 03:23:20;;;;;;;0.90;0.90;;;;;;;;;;5072067;28;20202;-56
2023/07/15 03:25:46;;;;;;;0.90;0.90;;;;;;;;;;5058492;28;20657;-56
2023/07/15 03:28:12;;;;;;;1.10;1.00;;;;;;;;;;5053825;28;20209;-56
2023/07/15 03:30:38;;;;;;;1.40;1.05;;;;;;;;;;5054208;28;20175;-56
2023/07/15 03:33:04;;;;;;;0.82;0.82;;;;;;;;;;5054477;28;20183;-56
2023/07/15 03:35:30;;;;;;;1.17;1.08;;;;;;;;;;5054400;28;20183;-56
2023/07/15 03:37:56;;;;;;;0.90;0.90;;;;;;;;;;5054290;28;20437;-56
2023/07/15 03:40:22;;;;;;;0.90;0.90;;;;;;;;;;5054676;28;20273;-56
2023/07/15 03:42:48;;;;;;;1.33;1.20;;;;;;;;;;5052555;28;20214;-56
2023/07/15 03:45:14;;;;;;;1.60;1.00;;;;;;;;;;5053801;28;20203;-55
2023/07/15 03:47:40;;;;;;;1.55;1.10;;;;;;;;;;5053859;28;20286;-55
2023/07/15 03:50:09;;;;;;;0.93;0.90;;;;;;;;;;5053427;28;20268;-55
2023/07/15 03:52:35;;;;;;;0.95;0.95;;;;;;;;;;5051114;28;20180;-55
2023/07/15 03:55:03;;;;;;;1.17;1.08;;;;;;;;;;5054523;28;20175;-55
2023/07/15 03:57:29;;;;;;;1.33;1.10;;;;;;;;;;5053598;28;20175;-55
2023/07/15 03:59:55;;;;;;;1.20;1.10;;;;;;;;;;5048964;28;20191;-55
2023/07/15 04:02:21;;;;;;;1.40;1.30;;;;;;;;;;5049874;28;20519;-55
2023/07/15 04:04:47;;;;;;;1.02;1.00;;;;;;;;;;5053435;28;20666;-55
2023/07/15 04:07:13;;;;;;;1.17;1.08;;;;;;;;;;5054031;28;20279;-55
2023/07/15 04:09:39;;;;;;;1.13;0.95;;;;;;;;;;5051822;28;20547;-55
2023/07/15 04:12:06;;;;;;;1.05;0.98;;;;;;;;;;5048183;28;20182;-55
2023/07/15 04:14:32;;;;;;;1.10;1.00;;;;;;;;;;5053648;28;20171;-55
2023/07/15 04:16:58;;;;;;;1.20;1.10;;;;;;;;;;5047232;28;20742;-55
2023/07/15 04:19:24;;;;;;;2.13;1.20;;;;;;;;;;5052602;28;20576;-55
2023/07/15 04:21:50;;;;;;;1.15;1.00;;;;;;;;;;5056380;28;20247;-55
2023/07/15 04:24:16;;;;;;;1.48;1.38;;;;;;;;;;5073739;28;20218;-55
2023/07/15 04:26:43;;;;;;;1.15;1.05;;;;;;;;;;5057237;28;20213;-55
2023/07/15 04:29:12;;;;;;;1.42;1.30;;;;;;;;;;5053346;28;20175;-56
2023/07/15 04:31:38;;;;;;;1.00;0.98;;;;;;;;;;5053364;28;20187;-56
2023/07/15 04:34:04;;;;;;;1.30;1.20;;;;;;;;;;5054429;28;20205;-55
2023/07/15 04:36:30;;;;;;;1.38;1.10;;;;;;;;;;5056995;28;20187;-55
2023/07/15 04:38:56;;;;;;;1.10;1.00;;;;;;;;;;5053480;28;20179;-55
2023/07/15 04:41:22;;;;;;;1.20;1.10;;;;;;;;;;5057533;28;20237;-55
2023/07/15 04:43:48;;;;;;;0.98;0.98;;;;;;;;;;5057137;28;20180;-56
2023/07/15 04:46:14;;;;;;;0.90;0.90;;;;;;;;;;5056996;28;20179;-56
2023/07/15 04:48:40;;;;;;;1.05;0.95;;;;;;;;;;5050584;28;20199;-56
2023/07/15 04:51:07;;;;;;;0.90;0.80;;;;;;;;;;5057560;28;20293;-56
2023/07/15 04:53:33;;;;;;;1.27;1.17;;;;;;;;;;5062353;28;20187;-55
2023/07/15 04:55:59;;;;;;;1.00;0.95;;;;;;;;;;5057603;28;20190;-55
2023/07/15 04:58:24;;;;;;;0.93;0.93;;;;;;;;;;5053711;28;20202;-55
2023/07/15 05:00:50;;;;;;;1.10;1.05;;;;;;;;;;5051828;28;20190;-55
2023/07/15 05:03:17;;;;;;;0.93;0.90;;;;;;;;;;5056903;28;20269;-56
2023/07/15 05:05:46;;;;;;;1.27;1.10;;;;;;;;;;5054176;28;20198;-56
2023/07/15 05:08:15;;;;;;;0.98;0.98;;;;;;;;;;5053004;28;20261;-55
2023/07/15 05:10:42;;;;;;;1.13;1.02;;;;;;;;;;5055750;28;20186;-56
2023/07/15 05:13:08;;;;;;;0.85;0.85;;;;;;;;;;5057071;28;20176;-56
2023/07/15 05:15:36;;;;;;;0.77;0.77;;;;;;;;;;5057024;28;20476;-55
2023/07/15 05:18:01;;;;;;;1.20;1.10;;;;;;;;;;5056753;28;20221;-55
2023/07/15 05:20:28;;;;;;;0.82;0.82;;;;;;;;;;5073775;28;20624;-55
2023/07/15 05:22:54;;;;;;;0.90;0.90;;;;;;;;;;5068587;28;20269;-55
2023/07/15 05:25:20;;;;;;;1.20;1.10;;;;;;;;;;5076370;28;20210;-55
2023/07/15 05:27:46;;;;;;;1.08;1.00;;;;;;;;;;5076676;28;20210;-55
2023/07/15 05:30:12;;;;;;;2.13;1.00;;;;;;;;;;5076153;28;20253;-55
2023/07/15 05:32:38;;;;;;;1.10;1.00;;;;;;;;;;5076664;28;20202;-55
2023/07/15 05:35:05;;;;;;;0.93;0.93;;;;;;;;;;5076987;28;20174;-55
2023/07/15 05:37:31;;;;;;;0.90;0.90;;;;;;;;;;5060823;28;20248;-55
2023/07/15 05:39:57;;;;;;;1.10;1.00;;;;;;;;;;5054827;28;20235;-55
2023/07/15 05:42:23;;;;;;;1.30;1.20;;;;;;;;;;5054569;28;20275;-55
2023/07/15 05:44:49;;;;;;;1.13;1.02;;;;;;;;;;5050019;28;20285;-55
2023/07/15 05:47:15;;;;;;;1.17;1.05;;;;;;;;;;5050191;28;20199;-55
2023/07/15 05:49:40;;;;;;;0.90;0.90;;;;;;;;;;5055694;28;20558;-55
2023/07/15 05:52:07;;;;;;;0.77;0.77;;;;;;;;;;5063198;28;20182;-55
2023/07/15 05:54:33;;;;;;;1.00;1.00;;;;;;;;;;5066389;28;20180;-55
2023/07/15 05:56:58;;;;;;;1.05;1.02;;;;;;;;;;5055301;28;20194;-55
2023/07/15 05:59:24;;;;;;;0.80;0.80;;;;;;;;;;5049547;28;20183;-55
2023/07/15 06:01:50;;;;;;;1.00;1.00;;;;;;;;;;5053724;28;20183;-56
2023/07/15 06:04:16;;;;;;;1.10;1.08;;;;;;;;;;5050794;28;20202;-56
2023/07/15 06:06:42;;;;;;;1.17;0.85;;;;;;;;;;5054625;28;20207;-56
2023/07/15 06:09:08;;;;;;;0.90;0.90;;;;;;;;;;5050241;28;20190;-56
2023/07/15 06:11:34;;;;;;;0.88;0.85;;;;;;;;;;5048128;28;20199;-56
2023/07/15 06:14:03;;;;;;;1.10;0.95;;;;;;;;;;5049951;28;20244;-56
2023/07/15 06:16:29;;;;;;;1.20;1.10;;;;;;;;;;5047076;28;20187;-55
2023/07/15 06:18:55;;;;;;;0.80;0.80;;;;;;;;;;5055105;28;20648;-55
2023/07/15 06:21:21;;;;;;;0.90;0.90;;;;;;;;;;5055504;28;20722;-56
2023/07/15 06:23:47;;;;;;;0.70;0.70;;;;;;;;;;5075599;28;20633;-56
2023/07/15 06:26:13;;;;;;;1.23;1.00;;;;;;;;;;5073443;28;20212;-56
2023/07/15 06:28:39;;;;;;;0.80;0.80;;;;;;;;;;5047106;28;20212;-55
2023/07/15 06:31:06;;;;;;;1.85;1.00;;;;;;;;;;5048151;28;20172;-55
2023/07/15 06:33:33;;;;;;;1.02;1.02;;;;;;;;;;5046315;28;20178;-55
2023/07/15 06:35:59;;;;;;;1.30;1.13;;;;;;;;;;5047735;28;20496;-56
2023/07/15 06:38:26;;;;;;;1.25;1.13;;;;;;;;;;5054898;28;20189;-56
2023/07/15 06:40:52;;;;;;;1.00;1.00;;;;;;;;;;5054674;28;20190;-55
2023/07/15 06:43:18;;;;;;;1.05;0.90;;;;;;;;;;5055499;28;20187;-55
2023/07/15 06:45:44;;;;;;;1.17;1.08;;;;;;;;;;5045770;28;20196;-55
2023/07/15 06:48:10;;;;;;;1.10;1.00;;;;;;;;;;5046948;28;20290;-55
2023/07/15 06:50:36;;;;;;;0.80;0.80;;;;;;;;;;5054409;28;20222;-55
2023/07/15 06:53:02;;;;;;;0.80;0.80;;;;;;;;;;5062592;28;20503;-55
2023/07/15 06:55:28;;;;;;;0.90;0.90;;;;;;;;;;5054440;28;20179;-55
2023/07/15 06:57:54;;;;;;;1.10;1.00;;;;;;;;;;5054736;28;20608;-56
2023/07/15 07:00:22;;;;;;;0.90;0.90;;;;;;;;;;5052976;28;20722;-56
2023/07/15 07:02:48;;;;;;;0.80;0.80;;;;;;;;;;5049434;28;20179;-56
2023/07/15 07:05:15;;;;;;;0.80;0.80;;;;;;;;;;5054906;28;20555;-56
2023/07/15 07:07:41;;;;;;;1.00;0.90;;;;;;;;;;5054804;28;20198;-56
2023/07/15 07:10:08;;;;;;;1.20;1.10;;;;;;;;;;5054446;28;20175;-56
2023/07/15 07:12:34;;;;;;;1.10;1.00;;;;;;;;;;5053884;28;20185;-56
2023/07/15 07:15:00;;;;;;;0.95;0.93;;;;;;;;;;5054683;28;20179;-55
2023/07/15 07:17:26;;;;;;;0.80;0.80;;;;;;;;;;5049944;28;20187;-56
2023/07/15 07:19:52;;;;;;;0.80;0.80;;;;;;;;;;5054604;28;20210;-55
2023/07/15 07:22:18;;;;;;;1.30;1.20;;;;;;;;;;5073602;28;20490;-56
2023/07/15 07:24:44;;;;;;;1.02;1.00;;;;;;;;;;5074382;28;20230;-56
2023/07/15 07:27:11;;;;;;;0.95;0.82;;;;;;;;;;5074402;28;20455;-56
2023/07/15 07:29:37;;;;;;;0.95;0.95;;;;;;;;;;5074061;28;20175;-56
2023/07/15 07:32:04;;;;;;;0.88;0.88;;;;;;;;;;5074550;28;20170;-56
2023/07/15 07:34:30;;;;;;;0.88;0.88;;;;;;;;;;5061275;28;20434;-56
2023/07/15 07:36:55;;;;;;;1.00;0.90;;;;;;;;;;5057161;28;20179;-56
2023/07/15 07:39:21;;;;;;;1.63;1.10;;;;;;;;;;5047133;28;20213;-56
2023/07/15 07:41:47;;;;;;;1.10;1.00;;;;;;;;;;5052457;28;20562;-55
2023/07/15 07:44:14;;;;;;;1.00;0.90;;;;;;;;;;5054340;28;20191;-55
2023/07/15 07:46:39;;;;;;;0.88;0.88;;;;;;;;;;5058661;28;20198;-55
2023/07/15 07:49:05;;;;;;;1.02;1.00;;;;;;;;;;5050636;28;20179;-56
2023/07/15 07:51:31;;;;;;;1.85;1.08;;;;;;;;;;5054549;28;20187;-56
2023/07/15 07:53:57;;;;;;;0.90;0.90;;;;;;;;;;5058569;28;20179;-56
2023/07/15 07:56:23;;;;;;;1.05;0.70;;;;;;;;;;5053801;28;20228;-56
2023/07/15 07:58:54;;;;;;;1.30;1.10;;;;;;;;;;5051827;28;20183;-56
2023/07/15 08:01:21;;;;;;;0.93;0.93;;;;;;;;;;5054078;28;20554;-56
2023/07/15 08:03:47;;;;;;;0.90;0.90;;;;;;;;;;5046108;28;20549;-56
2023/07/15 08:06:13;;;;;;;1.00;1.00;;;;;;;;;;5054057;28;20306;-56
2023/07/15 08:08:39;;;;;;;0.77;0.77;;;;;;;;;;5055673;28;20263;-55
2023/07/15 08:11:04;;;;;;;1.17;1.08;;;;;;;;;;5055462;28;20265;-55
2023/07/15 08:13:30;;;;;;;0.80;0.80;;;;;;;;;;5057690;28;20189;-55
2023/07/15 08:15:58;;;;;;;1.30;1.20;;;;;;;;;;5052962;28;20180;-55
2023/07/15 08:18:24;;;;;;;1.00;1.00;;;;;;;;;;5056839;28;20198;-55
2023/07/15 08:20:51;;;;;;;0.85;0.82;;;;;;;;;;5054209;28;20180;-55
2023/07/15 08:23:17;;;;;;;1.13;1.02;;;;;;;;;;5074614;28;20178;-55
2023/07/15 08:25:43;;;;;;;0.80;0.80;;;;;;;;;;5054834;28;20241;-55
2023/07/15 08:28:08;;;;;;;0.90;0.90;;;;;;;;;;5052309;28;20246;-56
2023/07/15 08:30:36;;;;;;;0.93;0.93;;;;;;;;;;5057853;28;20250;-56
2023/07/15 08:33:02;;;;;;;1.30;1.20;;;;;;;;;;5052118;28;20177;-56
2023/07/15 08:35:28;;;;;;;0.95;0.90;;;;;;;;;;5057008;28;20191;-56
2023/07/15 08:37:54;;;;;;;1.13;1.13;;;;;;;;;;5052469;28;20201;-56
2023/07/15 08:40:22;;;;;;;0.90;0.70;;;;;;;;;;5055165;28;20191;-55
2023/07/15 08:42:47;;;;;;;0.85;0.85;;;;;;;;;;5045941;28;20232;-56
2023/07/15 08:45:13;;;;;;;1.00;1.00;;;;;;;;;;5057696;28;20191;-56
2023/07/15 08:47:43;;;;;;;1.02;0.90;;;;;;;;;;5053253;28;20306;-56
2023/07/15 08:50:11;;;;;;;1.13;1.02;;;;;;;;;;5055990;28;20234;-56
2023/07/15 08:52:38;;;;;;;1.13;1.02;;;;;;;;;;5065400;28;20477;-56
2023/07/15 08:55:04;;;;;;;1.20;1.10;;;;;;;;;;5045973;28;20278;-56
2023/07/15 08:57:30;;;;;;;0.93;0.93;;;;;;;;;;5053264;28;20198;-56
2023/07/15 08:59:57;;;;;;;1.27;1.17;;;;;;;;;;5057052;28;20179;-56
2023/07/15 09:02:23;;;;;;;1.02;0.98;;;;;;;;;;5050612;28;20183;-56
2023/07/15 09:04:49;;;;;;;1.08;0.98;;;;;;;;;;5056429;28;20194;-56
2023/07/15 09:07:15;;;;;;;1.00;0.95;;;;;;;;;;5056476;28;20206;-56
2023/07/15 09:09:42;;;;;;;0.90;0.90;;;;;;;;;;5053716;28;20224;-56
2023/07/15 09:12:09;;;;;;;1.15;1.05;;;;;;;;;;5056339;28;20183;-55
2023/07/15 09:14:46;;;;;;;0.88;0.88;;;;;;;;;;5056888;28;20179;-55
2023/07/15 09:17:16;;;;;;;0.95;0.95;;;;;;;;;;5056268;28;20183;-56
2023/07/15 09:19:43;;;;;;;0.93;0.90;;;;;;;;;;5063674;28;20186;-56
2023/07/15 09:22:09;;;;;;;1.23;1.00;;;;;;;;;;5070196;28;20230;-56
2023/07/15 09:24:38;;;;;;;0.77;0.77;;;;;;;;;;5067067;28;20218;-56
2023/07/15 09:27:04;;;;;;;1.20;1.10;;;;;;;;;;5056711;28;20294;-56
2023/07/15 09:29:30;;;;;;;0.80;0.80;;;;;;;;;;5056287;28;20183;-56
2023/07/15 09:31:56;;;;;;;1.00;1.00;;;;;;;;;;5056573;28;20447;-56
2023/07/15 09:34:26;;;;;;;1.20;1.10;;;;;;;;;;5056663;28;20561;-56
2023/07/15 09:36:52;;;;;;;0.80;0.80;;;;;;;;;;5056288;28;20187;-56
2023/07/15 09:39:19;;;;;;;1.00;1.00;;;;;;;;;;5054559;28;20215;-56
2023/07/15 09:41:58;;;;;;;0.80;0.80;;;;;;;;;;5056377;28;20218;-56
2023/07/15 09:44:34;;;;;;;0.80;0.80;;;;;;;;;;5049391;28;20174;-56
2023/07/15 09:47:00;;;;;;;1.08;1.08;;;;;;;;;;5055661;28;20195;-56
2023/07/15 09:49:26;;;;;;;0.90;0.90;;;;;;;;;;5037794;28;20578;-55
2023/07/15 09:51:52;;;;;;;0.90;0.90;;;;;;;;;;5057175;28;20182;-55
2023/07/15 09:54:20;;;;;;;1.20;1.10;;;;;;;;;;5075976;28;20182;-55
2023/07/15 09:56:46;;;;;;;0.95;0.93;;;;;;;;;;5059922;28;20211;-55
2023/07/15 09:59:18;;;;;;;0.90;0.90;;;;;;;;;;5055243;28;20476;-56
2023/07/15 10:01:47;;;;;;;0.80;0.80;;;;;;;;;;5053824;28;20183;-56
2023/07/15 10:04:22;;;;;;;0.70;0.70;;;;;;;;;;5053548;28;20198;-56
2023/07/15 10:06:50;;;;;;;1.10;1.00;;;;;;;;;;5050776;28;20645;-56
2023/07/15 10:09:16;;;;;;;1.25;0.98;;;;;;;;;;5052285;28;20210;-56
2023/07/15 10:11:42;;;;;;;1.10;1.00;;;;;;;;;;5050609;28;20225;-56
2023/07/15 10:14:09;;;;;;;1.00;1.00;;;;;;;;;;5054769;28;20183;-55
2023/07/15 10:16:36;;;;;;;1.10;1.00;;;;;;;;;;5055044;28;20211;-55
2023/07/15 10:19:02;;;;;;;1.20;1.10;;;;;;;;;;5049210;28;20494;-56
2023/07/15 10:21:28;;;;;;;0.77;0.77;;;;;;;;;;5053309;28;20444;-56
2023/07/15 10:24:09;;;;;;;0.80;0.70;;;;;;;;;;5062183;28;20268;-56
2023/07/15 10:26:35;;;;;;;1.10;0.98;;;;;;;;;;5055130;28;20259;-56
2023/07/15 10:29:02;;;;;;;1.10;1.00;;;;;;;;;;5054471;28;20175;-56
2023/07/15 10:31:28;;;;;;;0.95;0.95;;;;;;;;;;5054998;28;20257;-55
2023/07/15 10:33:54;;;;;;;0.90;0.90;;;;;;;;;;5055208;28;20261;-55
2023/07/15 10:36:40;;;;;;;0.95;0.80;;;;;;;;;;5052311;28;20171;-55
2023/07/15 10:39:10;;;;;;;0.75;0.75;;;;;;;;;;5055129;28;20171;-55
2023/07/15 10:42:08;;;;;;;0.90;0.73;;;;;;;;;;5055532;28;20459;-56
2023/07/15 10:44:39;;;;;;;1.10;1.00;;;;;;;;;;5043190;28;20261;-56
2023/07/15 10:47:05;;;;;;;0.77;0.77;;;;;;;;;;5051640;28;20227;-56
2023/07/15 10:49:31;;;;;;;0.70;0.70;;;;;;;;;;5050187;28;20248;-56
2023/07/15 10:51:58;;;;;;;2.25;0.80;;;;;;;;;;5050330;28;20172;-56
2023/07/15 10:54:27;;;;;;;0.85;0.85;;;;;;;;;;5055117;28;20236;-56
2023/07/15 10:56:53;;;;;;;0.70;0.70;;;;;;;;;;5047475;28;20275;-56
2023/07/15 10:59:19;;;;;;;0.77;0.77;;;;;;;;;;5053594;28;20198;-56
2023/07/15 11:01:46;;;;;;;0.82;0.82;;;;;;;;;;5054368;28;20175;-55
2023/07/15 11:04:12;;;;;;;0.90;0.90;;;;;;;;;;5047839;28;20183;-55
2023/07/15 11:06:38;;;;;;;0.82;0.80;;;;;;;;;;5054673;28;20194;-56
2023/07/15 11:09:17;;;;;;;0.70;0.70;;;;;;;;;;5063405;28;20201;-56
2023/07/15 11:11:43;;;;;;;0.73;0.73;;;;;;;;;;5073997;28;20162;-56
2023/07/15 11:14:28;;;;;;;0.90;0.90;;;;;;;;;;5074831;28;20265;-56
2023/07/15 11:16:58;;;;;;;0.73;0.73;;;;;;;;;;5074503;28;20185;-56
2023/07/15 11:19:27;;;;;;;1.00;0.93;;;;;;;;;;5068775;28;20187;-56
2023/07/15 11:21:53;;;;;;;0.70;0.70;;;;;;;;;;5070072;28;20181;-56
2023/07/15 11:24:21;;;;;;;0.75;0.75;;;;;;;;;;5074312;28;20245;-56
2023/07/15 11:26:47;;;;;;;0.60;0.60;;;;;;;;;;5074310;28;20247;-56
2023/07/15 11:29:14;;;;;;;0.70;0.70;;;;;;;;;;5073382;28;20175;-56
2023/07/15 11:31:44;;;;;;;0.80;0.70;;;;;;;;;;5074763;28;20231;-56
2023/07/15 11:34:10;;;;;;;0.68;0.68;;;;;;;;;;5074176;28;20174;-57
2023/07/15 11:36:37;;;;;;;0.70;0.70;;;;;;;;;;5065910;28;20189;-56
2023/07/15 11:39:06;;;;;;;0.60;0.60;;;;;;;;;;5051005;28;20175;-56
2023/07/15 11:41:33;;;;;;;0.80;0.80;;;;;;;;;;5050145;28;20176;-57
2023/07/15 11:43:59;;;;;;;0.70;0.70;;;;;;;;;;5049691;28;20191;-57
2023/07/15 11:46:25;;;;;;;0.77;0.77;;;;;;;;;;5054068;28;20202;-56
2023/07/15 11:48:51;;;;;;;0.80;0.80;;;;;;;;;;5049871;28;20238;-57
2023/07/15 11:51:21;;;;;;;0.85;0.60;;;;;;;;;;5055259;28;20211;-57
2023/07/15 11:53:47;;;;;;;0.80;0.80;;;;;;;;;;5049783;28;20178;-57
2023/07/15 11:56:31;;;;;;;0.90;0.90;;;;;;;;;;5054003;28;20175;-56
2023/07/15 11:58:57;;;;;;;0.90;0.80;;;;;;;;;;5050994;28;20270;-57
2023/07/15 12:01:24;;;;;;;0.63;0.60;;;;;;;;;;5053126;28;20262;-57
2023/07/15 12:03:50;;;;;;;0.50;0.50;;;;;;;;;;5051751;28;20278;-56
2023/07/15 12:06:17;;;;;;;0.63;0.63;;;;;;;;;;5048337;28;20270;-57
2023/07/15 12:08:44;;;;;;;0.70;0.63;;;;;;;;;;5053114;28;20210;-56
2023/07/15 12:11:17;;;;;;;0.55;0.55;;;;;;;;;;5046543;28;20267;-56
2023/07/15 12:13:43;;;;;;;0.70;0.70;;;;;;;;;;5051493;28;20175;-57
2023/07/15 12:16:09;;;;;;;0.60;0.60;;;;;;;;;;5045569;28;20182;-57
2023/07/15 12:18:35;;;;;;;0.70;0.70;;;;;;;;;;5053484;28;20542;-57
2023/07/15 12:21:01;;;;;;;0.75;0.63;;;;;;;;;;5050189;28;20190;-57
2023/07/15 12:23:27;;;;;;;0.50;0.50;;;;;;;;;;5068849;28;20255;-57
2023/07/15 12:25:53;;;;;;;0.70;0.70;;;;;;;;;;5042370;28;20249;-57
2023/07/15 12:28:18;;;;;;;0.60;0.60;;;;;;;;;;5051733;28;20621;-57
2023/07/15 12:30:44;;;;;;;0.60;0.60;;;;;;;;;;5052558;28;20201;-57
2023/07/15 12:33:10;;;;;;;0.63;0.63;;;;;;;;;;5050853;28;20185;-57
2023/07/15 12:35:37;;;;;;;0.60;0.60;;;;;;;;;;5054135;28;20183;-57
2023/07/15 12:38:02;;;;;;;0.77;0.77;;;;;;;;;;5051747;28;20198;-57
2023/07/15 12:40:29;;;;;;;0.50;0.50;;;;;;;;;;5051913;28;20498;-57
2023/07/15 12:42:55;;;;;;;0.60;0.60;;;;;;;;;;5051818;28;20175;-56
2023/07/15 12:45:21;;;;;;;0.50;0.50;;;;;;;;;;5048842;28;20218;-56
2023/07/15 12:47:47;;;;;;;0.75;0.75;;;;;;;;;;5052240;28;20227;-57
2023/07/15 12:50:13;;;;;;;0.75;0.73;;;;;;;;;;5052445;28;20556;-57
2023/07/15 12:52:39;;;;;;;0.60;0.60;;;;;;;;;;5048378;28;20202;-55
2023/07/15 12:55:05;;;;;;;0.70;0.70;;;;;;;;;;5056599;28;20266;-56
2023/07/15 12:57:31;;;;;;;0.70;0.70;;;;;;;;;;5049886;28;20209;-56
2023/07/15 12:59:57;;;;;;;0.50;0.50;;;;;;;;;;5055680;28;20211;-56
2023/07/15 13:02:23;;;;;;;0.60;0.60;;;;;;;;;;5048614;28;20187;-57
2023/07/15 13:04:49;;;;;;;0.50;0.50;;;;;;;;;;5070639;28;20457;-57
2023/07/15 13:07:16;;;;;;;0.55;0.55;;;;;;;;;;5071109;28;20213;-56
2023/07/15 13:09:42;;;;;;;0.60;0.60;;;;;;;;;;5057066;28;20163;-57
2023/07/15 13:12:08;;;;;;;0.50;0.50;;;;;;;;;;5055644;28;20274;-57
2023/07/15 13:14:34;;;;;;;0.75;0.75;;;;;;;;;;5057013;28;20179;-57
2023/07/15 13:17:00;;;;;;;0.50;0.50;;;;;;;;;;5051522;28;20445;-57
2023/07/15 13:19:26;;;;;;;0.52;0.52;;;;;;;;;;5057451;28;20269;-57
2023/07/15 13:21:52;;;;;;;0.50;0.50;;;;;;;;;;5076980;28;20178;-56
2023/07/15 13:24:18;;;;;;;0.55;0.55;;;;;;;;;;5067497;28;20229;-56
2023/07/15 13:26:44;;;;;;;0.60;0.60;;;;;;;;;;5056704;28;20194;-56
2023/07/15 13:29:10;;;;;;;0.47;0.47;;;;;;;;;;5056520;28;20218;-56
2023/07/15 13:31:36;;;;;;;0.55;0.55;;;;;;;;;;5056879;28;20175;-56
2023/07/15 13:34:02;;;;;;;0.60;0.60;;;;;;;;;;5050180;28;20300;-56
2023/07/15 13:36:31;;;;;;;0.43;0.43;;;;;;;;;;5056577;28;20557;-56
2023/07/15 13:38:57;;;;;;;0.52;0.52;;;;;;;;;;5049099;28;20187;-56
2023/07/15 13:41:23;;;;;;;0.52;0.52;;;;;;;;;;5056547;28;20187;-55
2023/07/15 13:43:49;;;;;;;0.65;0.63;;;;;;;;;;5049829;28;20198;-56
2023/07/15 13:46:15;;;;;;;0.60;0.60;;;;;;;;;;5051191;28;20196;-56
2023/07/15 13:48:41;;;;;;;0.50;0.50;;;;;;;;;;5048182;28;20588;-57
2023/07/15 13:51:06;;;;;;;0.60;0.60;;;;;;;;;;5051399;28;20187;-56
2023/07/15 13:53:32;;;;;;;0.50;0.50;;;;;;;;;;5053213;28;20273;-56
2023/07/15 13:55:58;;;;;;;0.30;0.30;;;;;;;;;;5050531;28;20262;-56
2023/07/15 13:58:24;;;;;;;0.50;0.50;;;;;;;;;;5049768;28;20202;-57
2023/07/15 14:00:50;;;;;;;0.30;0.30;;;;;;;;;;5056244;28;20179;-56
2023/07/15 14:03:16;;;;;;;0.50;0.50;;;;;;;;;;5051477;28;20195;-56
2023/07/15 14:05:42;;;;;;;0.50;0.50;;;;;;;;;;5048674;28;20183;-56
2023/07/15 14:08:08;;;;;;;0.50;0.40;;;;;;;;;;5046434;28;20207;-56
2023/07/15 14:10:34;;;;;;;0.40;0.40;;;;;;;;;;5055443;28;20215;-56
2023/07/15 14:13:00;;;;;;;0.70;0.70;;;;;;;;;;5051071;28;20175;-56
2023/07/15 14:15:26;;;;;;;0.55;0.43;;;;;;;;;;5055513;28;20218;-56
2023/07/15 14:17:52;;;;;;;0.30;0.30;;;;;;;;;;5054567;28;20184;-57
2023/07/15 14:20:17;;;;;;;0.43;0.43;;;;;;;;;;5051016;28;20205;-57
2023/07/15 14:22:43;;;;;;;0.40;0.40;;;;;;;;;;5058223;28;20175;-57
2023/07/15 14:25:10;;;;;;;0.47;0.47;;;;;;;;;;5053615;28;20208;-56
2023/07/15 14:27:35;;;;;;;0.60;0.60;;;;;;;;;;5051396;28;20249;-56
2023/07/15 14:30:01;;;;;;;0.63;0.63;;;;;;;;;;5054686;28;20171;-56
2023/07/15 14:32:27;;;;;;;0.45;0.43;;;;;;;;;;5053563;28;20709;-57
2023/07/15 14:34:53;;;;;;;0.40;0.40;;;;;;;;;;5055676;28;20606;-56
2023/07/15 14:37:19;;;;;;;0.43;0.43;;;;;;;;;;5053489;28;20555;-56
2023/07/15 14:39:45;;;;;;;0.40;0.40;;;;;;;;;;5052680;28;20191;-56